Time;durP1;ratioP1;P1;durP2;ratioP2;P2;SDS_P1;SDS_P2;PMS_P1;PMS_P2;Temp;Humidity;BMP_temperature;BMP_pressure;BME280_temperature;BME280_humidity;BME280_pressure;Samples;Min_cycle;Max_cycle;Signal;HPM_P1;HPM_P2
2024/01/24 00:00:08;;;;;;;0.60;0.60;;;;;;;7.27;81.18;97646.72;29395;228;63004;-55
2024/01/24 00:00:39;;;;;;;0.60;0.60;;;;;;;7.30;80.72;97636.19;29395;244;63009;-56
2024/01/24 00:01:11;;;;;;;0.60;0.60;;;;;;;7.29;80.79;97634.56;29394;216;64009;-57
2024/01/24 00:01:45;;;;;;;0.60;0.60;;;;;;;7.27;81.00;97642.12;29395;252;63009;-56
2024/01/24 00:02:17;;;;;;;0.50;0.50;;;;;;;7.24;81.55;97641.81;29395;209;63005;-56
2024/01/24 00:02:48;;;;;;;0.50;0.50;;;;;;;7.26;81.25;97624.31;29395;271;63009;-59
2024/01/24 00:03:20;;;;;;;0.60;0.60;;;;;;;7.30;80.64;97646.19;29395;233;63005;-57
2024/01/24 00:03:51;;;;;;;0.60;0.60;;;;;;;7.27;81.31;97642.12;29395;252;63009;-55
2024/01/24 00:04:22;;;;;;;0.60;0.60;;;;;;;7.31;81.26;97645.94;29395;202;63004;-63
2024/01/24 00:04:53;;;;;;;0.60;0.60;;;;;;;7.45;80.01;97640.94;29395;212;63009;-58
2024/01/24 00:05:25;;;;;;;0.60;0.60;;;;;;;7.46;80.25;97644.47;29395;223;63004;-55
2024/01/24 00:05:56;;;;;;;0.50;0.50;;;;;;;7.43;80.61;97644.97;29395;206;63009;-56
2024/01/24 00:06:27;;;;;;;0.55;0.55;;;;;;;7.43;80.70;97658.47;29394;202;64022;-55
2024/01/24 00:06:59;;;;;;;0.70;0.70;;;;;;;7.50;79.79;97641.00;29395;202;63009;-61
2024/01/24 00:07:31;;;;;;;0.50;0.50;;;;;;;7.51;79.80;97647.22;29395;221;63005;-56
2024/01/24 00:08:03;;;;;;;0.55;0.55;;;;;;;7.52;79.65;97643.44;29395;214;63009;-57
2024/01/24 00:08:36;;;;;;;0.60;0.60;;;;;;;7.47;80.08;97656.91;29395;204;63005;-56
2024/01/24 00:09:07;;;;;;;0.60;0.60;;;;;;;7.48;80.10;97643.16;29395;198;63009;-55
2024/01/24 00:09:38;;;;;;;0.60;0.60;;;;;;;7.49;80.13;97643.97;29395;216;63005;-57
2024/01/24 00:10:11;;;;;;;0.55;0.55;;;;;;;7.49;80.16;97660.16;29395;272;63027;-66
2024/01/24 00:10:42;;;;;;;0.70;0.70;;;;;;;7.51;80.29;97650.75;29395;210;63005;-57
2024/01/24 00:11:14;;;;;;;0.60;0.60;;;;;;;7.51;79.87;97641.81;29395;213;63009;-57
2024/01/24 00:11:45;;;;;;;0.60;0.60;;;;;;;7.49;80.25;97649.38;29394;197;64009;-58
2024/01/24 00:12:17;;;;;;;0.52;0.52;;;;;;;7.51;80.02;97631.84;29395;264;63009;-54
2024/01/24 00:12:48;;;;;;;0.50;0.50;;;;;;;7.51;80.04;97628.31;29395;228;63004;-54
2024/01/24 00:13:19;;;;;;;0.60;0.60;;;;;;;7.53;79.87;97634.28;29394;232;64013;-55
2024/01/24 00:13:51;;;;;;;0.50;0.50;;;;;;;7.57;80.04;97625.41;29395;220;63004;-57
2024/01/24 00:14:22;;;;;;;0.50;0.50;;;;;;;7.67;79.28;97640.88;29395;257;63008;-56
2024/01/24 00:14:53;;;;;;;0.52;0.52;;;;;;;7.70;78.94;97637.69;29395;211;63005;-56
2024/01/24 00:15:24;;;;;;;0.60;0.60;;;;;;;7.67;79.39;97638.19;29395;216;63020;-57
2024/01/24 00:15:56;;;;;;;0.60;0.60;;;;;;;7.66;79.75;97639.25;29395;216;63005;-58
2024/01/24 00:16:29;;;;;;;1.25;0.60;;;;;;;7.69;79.27;97636.84;29394;252;64013;-58
2024/01/24 00:17:00;;;;;;;0.60;0.60;;;;;;;7.75;79.45;97632.31;29395;236;63005;-67
2024/01/24 00:17:31;;;;;;;0.60;0.60;;;;;;;7.78;78.76;97631.81;29395;212;63009;-55
2024/01/24 00:18:04;;;;;;;0.50;0.50;;;;;;;7.74;79.21;97631.50;29395;235;63005;-57
2024/01/24 00:18:37;;;;;;;0.60;0.60;;;;;;;7.69;79.63;97633.34;29395;263;63009;-56
2024/01/24 00:19:08;;;;;;;2.25;2.05;;;;;;;7.69;79.70;97628.75;29395;208;63004;-62
2024/01/24 00:19:39;;;;;;;3.08;2.97;;;;;;;7.69;79.40;97626.06;29395;208;63009;-56
2024/01/24 00:20:12;;;;;;;0.50;0.50;;;;;;;7.67;79.57;97624.69;29395;223;63004;-56
2024/01/24 00:20:43;;;;;;;0.60;0.60;;;;;;;7.63;79.66;97618.97;29395;211;63009;-56
2024/01/24 00:21:15;;;;;;;0.60;0.60;;;;;;;7.60;80.19;97622.22;29395;275;63004;-57
2024/01/24 00:21:47;;;;;;;0.60;0.60;;;;;;;7.56;80.09;97626.50;29394;273;64013;-56
2024/01/24 00:22:18;;;;;;;0.60;0.60;;;;;;;7.53;80.79;97626.19;29395;212;63005;-58
2024/01/24 00:22:49;;;;;;;0.50;0.50;;;;;;;7.55;80.76;97621.34;29395;269;63009;-56
2024/01/24 00:23:20;;;;;;;0.60;0.60;;;;;;;7.58;80.67;97615.44;29395;262;63005;-57
2024/01/24 00:23:52;;;;;;;0.50;0.50;;;;;;;7.56;80.43;97628.38;29395;254;63009;-56
2024/01/24 00:24:23;;;;;;;0.60;0.60;;;;;;;7.59;80.31;97620.59;29394;224;64009;-56
2024/01/24 00:24:54;;;;;;;0.60;0.60;;;;;;;7.60;80.65;97616.00;29394;218;64013;-55
2024/01/24 00:25:28;;;;;;;0.50;0.50;;;;;;;7.58;80.76;97627.06;29395;217;63005;-56
2024/01/24 00:25:59;;;;;;;0.60;0.60;;;;;;;7.62;80.22;97601.13;29395;239;63009;-56
2024/01/24 00:26:31;;;;;;;0.60;0.60;;;;;;;7.60;80.71;97591.69;29395;199;63004;-56
2024/01/24 00:27:03;;;;;;;0.50;0.50;;;;;;;7.59;80.47;97598.16;29395;266;63009;-63
2024/01/24 00:27:34;;;;;;;0.60;0.60;;;;;;;7.58;80.99;97604.62;29395;204;63004;-57
2024/01/24 00:28:06;;;;;;;0.50;0.50;;;;;;;7.66;80.88;97612.25;29395;239;63009;-56
2024/01/24 00:28:38;;;;;;;0.60;0.60;;;;;;;7.69;80.52;97596.34;29395;202;63004;-55
2024/01/24 00:29:09;;;;;;;0.60;0.60;;;;;;;7.71;80.32;97594.19;29394;215;64013;-56
2024/01/24 00:29:40;;;;;;;0.50;0.50;;;;;;;7.70;80.43;97597.97;29395;202;63005;-54
2024/01/24 00:30:12;;;;;;;0.50;0.50;;;;;;;7.71;80.32;97601.50;29395;279;63009;-56
2024/01/24 00:30:44;;;;;;;0.60;0.60;;;;;;;7.69;80.44;97600.94;29395;263;63005;-56
2024/01/24 00:31:15;;;;;;;0.60;0.60;;;;;;;7.65;80.69;97602.50;29395;247;63009;-55
2024/01/24 00:31:48;;;;;;;0.60;0.60;;;;;;;7.61;81.09;97604.94;29395;286;63005;-58
2024/01/24 00:32:20;;;;;;;0.50;0.50;;;;;;;7.66;80.42;97596.03;29395;197;63009;-63
2024/01/24 00:32:51;;;;;;;0.52;0.52;;;;;;;7.72;80.61;97598.53;29395;247;63005;-57
2024/01/24 00:33:25;;;;;;;0.50;0.50;;;;;;;7.72;80.12;97589.62;29395;234;63017;-56
2024/01/24 00:33:57;;;;;;;0.60;0.60;;;;;;;7.69;80.76;97577.44;29395;269;63004;-55
2024/01/24 00:34:28;;;;;;;0.60;0.60;;;;;;;7.66;80.72;97593.34;29394;256;64013;-56
2024/01/24 00:35:00;;;;;;;0.60;0.60;;;;;;;7.67;80.70;97592.25;29395;197;63004;-55
2024/01/24 00:35:31;;;;;;;0.50;0.50;;;;;;;7.65;80.66;97597.09;29395;203;63009;-63
2024/01/24 00:36:02;;;;;;;0.60;0.60;;;;;;;7.65;81.01;97589.00;29395;211;63004;-56
2024/01/24 00:36:34;;;;;;;0.60;0.60;;;;;;;7.70;80.49;97586.34;29395;211;63008;-64
2024/01/24 00:37:05;;;;;;;0.50;0.50;;;;;;;7.68;80.55;97586.59;29395;204;63004;-55
2024/01/24 00:37:37;;;;;;;0.50;0.50;;;;;;;7.66;80.87;97580.66;29395;289;63009;-55
2024/01/24 00:38:08;;;;;;;0.60;0.60;;;;;;;7.70;81.30;97583.66;29395;227;63005;-59
2024/01/24 00:38:39;;;;;;;0.60;0.60;;;;;;;7.80;80.22;97558.62;29395;220;63009;-59
2024/01/24 00:39:13;;;;;;;0.60;0.60;;;;;;;7.84;80.32;97589.44;29395;231;63005;-61
2024/01/24 00:39:46;;;;;;;0.50;0.50;;;;;;;7.87;80.46;97581.66;29394;219;64013;-56
2024/01/24 00:40:18;;;;;;;0.50;0.50;;;;;;;7.86;80.20;97569.22;29395;209;63016;-54
2024/01/24 00:40:49;;;;;;;0.60;0.60;;;;;;;7.85;80.15;97572.97;29395;204;63009;-59
2024/01/24 00:41:20;;;;;;;0.60;0.60;;;;;;;7.84;80.15;97565.94;29395;248;63005;-54
2024/01/24 00:41:52;;;;;;;0.60;0.60;;;;;;;7.80;80.50;97572.13;29395;281;63009;-66
2024/01/24 00:42:24;;;;;;;0.60;0.60;;;;;;;7.76;80.80;97576.41;29395;354;63004;-56
2024/01/24 00:42:55;;;;;;;0.60;0.60;;;;;;;7.71;81.60;97577.19;29395;210;63009;-54
2024/01/24 00:43:27;;;;;;;0.50;0.50;;;;;;;7.67;81.92;97584.16;29395;272;63004;-54
2024/01/24 00:43:58;;;;;;;0.52;0.52;;;;;;;7.71;81.25;97579.88;29395;238;63008;-56
2024/01/24 00:44:30;;;;;;;0.50;0.50;;;;;;;7.69;81.18;97573.91;29395;218;63004;-56
2024/01/24 00:45:01;;;;;;;0.50;0.50;;;;;;;7.68;81.39;97578.50;29394;197;64014;-57
2024/01/24 00:45:33;;;;;;;0.60;0.60;;;;;;;7.72;81.35;97579.63;29395;208;63005;-58
2024/01/24 00:46:05;;;;;;;0.60;0.60;;;;;;;7.78;80.92;97572.38;29395;222;63009;-56
2024/01/24 00:46:36;;;;;;;0.60;0.60;;;;;;;7.77;81.30;97581.56;29395;235;63005;-55
2024/01/24 00:47:07;;;;;;;0.50;0.50;;;;;;;7.72;81.33;97579.63;29395;197;63009;-57
2024/01/24 00:47:39;;;;;;;0.60;0.60;;;;;;;7.70;81.66;97575.56;29395;202;63005;-54
2024/01/24 00:48:10;;;;;;;0.50;0.50;;;;;;;7.67;81.67;97584.16;29395;280;63009;-54
2024/01/24 00:48:41;;;;;;;0.60;0.60;;;;;;;7.68;81.86;97592.00;29395;207;63004;-53
2024/01/24 00:49:15;;;;;;;0.60;0.60;;;;;;;7.75;81.52;97589.09;29395;247;63009;-55
2024/01/24 00:49:47;;;;;;;8.98;0.95;;;;;;;7.84;80.73;97575.94;29394;256;64004;-55
2024/01/24 00:50:24;;;;;;;0.50;0.50;;;;;;;7.83;81.13;97575.13;29394;214;64013;-54
2024/01/24 00:50:55;;;;;;;0.60;0.60;;;;;;;7.86;80.96;97569.22;29395;235;63004;-62
2024/01/24 00:51:28;;;;;;;0.50;0.50;;;;;;;7.90;80.64;97575.72;29394;205;64008;-55
2024/01/24 00:52:03;;;;;;;0.50;0.50;;;;;;;7.95;80.85;97562.25;29395;250;63004;-58
2024/01/24 00:52:35;;;;;;;0.60;0.60;;;;;;;8.02;80.31;97568.22;29395;211;63009;-55
2024/01/24 00:53:07;;;;;;;0.60;0.60;;;;;;;8.03;79.97;97563.63;29395;267;63005;-54
2024/01/24 00:53:40;;;;;;;0.50;0.50;;;;;;;8.04;79.69;97568.78;29395;208;63009;-54
2024/01/24 00:54:11;;;;;;;0.50;0.50;;;;;;;8.01;80.13;97558.50;29395;216;63005;-54
2024/01/24 00:54:43;;;;;;;0.60;0.60;;;;;;;7.96;80.12;97569.28;29395;266;63009;-54
2024/01/24 00:55:14;;;;;;;0.50;0.50;;;;;;;7.98;80.36;97577.94;29395;221;63010;-68
2024/01/24 00:55:46;;;;;;;0.60;0.60;;;;;;;8.02;80.04;97573.62;29394;224;64013;-58
2024/01/24 00:56:17;;;;;;;0.50;0.50;;;;;;;8.01;79.65;97580.09;29395;266;63004;-55
2024/01/24 00:56:48;;;;;;;0.50;0.50;;;;;;;7.96;79.71;97582.81;29395;231;63013;-54
2024/01/24 00:57:20;;;;;;;0.50;0.50;;;;;;;7.94;80.44;97589.53;29395;223;63004;-54
2024/01/24 00:57:52;;;;;;;0.60;0.60;;;;;;;7.96;80.12;97573.88;29395;211;63009;-54
2024/01/24 00:58:23;;;;;;;0.60;0.60;;;;;;;7.95;80.52;97567.66;29395;267;63004;-54
2024/01/24 00:58:54;;;;;;;0.57;0.57;;;;;;;7.94;80.34;97566.03;29395;234;63008;-54
2024/01/24 00:59:26;;;;;;;0.50;0.50;;;;;;;7.91;80.70;97577.34;29395;274;63005;-67
2024/01/24 00:59:57;;;;;;;0.50;0.50;;;;;;;7.91;80.81;97574.66;29394;219;64014;-63
2024/01/24 01:00:29;;;;;;;0.60;0.60;;;;;;;7.94;80.99;97578.72;29395;220;63005;-63
2024/01/24 01:01:00;;;;;;;0.60;0.60;;;;;;;7.92;80.86;97573.59;29395;219;63009;-65
2024/01/24 01:01:31;;;;;;;0.60;0.60;;;;;;;8.02;80.44;97562.81;29395;218;63008;-66
2024/01/24 01:02:03;;;;;;;0.60;0.60;;;;;;;8.05;80.20;97566.91;29395;222;63009;-54
2024/01/24 01:02:34;;;;;;;0.60;0.60;;;;;;;8.12;79.95;97555.88;29395;230;63005;-55
2024/01/24 01:04:14;;;;;;;0.60;0.60;;;;;;;8.11;79.76;97581.25;88174;196;64004;-61
2024/01/24 01:04:45;;;;;;;0.60;0.60;;;;;;;8.15;79.80;97576.97;29394;237;64009;-62
2024/01/24 01:05:16;;;;;;;0.60;0.60;;;;;;;8.11;79.30;97570.44;29395;237;63000;-54
2024/01/24 01:05:47;;;;;;;0.50;0.50;;;;;;;8.08;79.75;97572.59;29394;249;64013;-53
2024/01/24 01:06:19;;;;;;;0.50;0.50;;;;;;;8.10;79.74;97580.44;29394;235;64009;-58
2024/01/24 01:06:50;;;;;;;0.60;0.60;;;;;;;8.16;79.27;97578.59;29395;261;63009;-58
2024/01/24 01:07:22;;;;;;;0.55;0.55;;;;;;;8.16;79.45;97582.12;29395;216;63004;-55
2024/01/24 01:07:53;;;;;;;0.60;0.60;;;;;;;8.16;79.48;97578.59;29395;216;63009;-54
2024/01/24 01:08:24;;;;;;;0.60;0.60;;;;;;;8.13;79.51;97576.41;29395;221;63004;-54
2024/01/24 01:08:55;;;;;;;0.50;0.50;;;;;;;8.12;79.98;97582.91;29394;218;64013;-59
2024/01/24 01:09:26;;;;;;;0.60;0.60;;;;;;;8.07;79.97;97587.19;29395;275;63004;-55
2024/01/24 01:09:58;;;;;;;0.50;0.50;;;;;;;8.13;79.95;97574.53;29395;229;63008;-58
2024/01/24 01:10:29;;;;;;;0.50;0.50;;;;;;;8.16;79.45;97570.50;29395;210;63010;-59
2024/01/24 01:11:00;;;;;;;0.50;0.50;;;;;;;8.15;79.29;97572.38;29395;259;63009;-54
2024/01/24 01:11:31;;;;;;;0.60;0.60;;;;;;;8.16;79.76;97573.19;29395;214;63005;-54
2024/01/24 01:12:04;;;;;;;0.60;0.60;;;;;;;8.12;80.08;97578.31;29394;205;64013;-54
2024/01/24 01:12:35;;;;;;;0.60;0.60;;;;;;;8.14;80.17;97578.84;29395;202;63005;-53
2024/01/24 01:13:07;;;;;;;0.60;0.60;;;;;;;8.12;79.72;97589.12;29395;241;63009;-54
2024/01/24 01:13:38;;;;;;;0.60;0.60;;;;;;;8.13;80.33;97589.94;29395;271;63005;-54
2024/01/24 01:14:09;;;;;;;0.50;0.50;;;;;;;8.15;80.00;97577.78;29395;276;63009;-67
2024/01/24 01:14:41;;;;;;;0.55;0.55;;;;;;;8.18;80.04;97579.16;29395;218;63004;-55
2024/01/24 01:15:12;;;;;;;0.50;0.50;;;;;;;8.11;80.37;97592.87;29395;229;63009;-54
2024/01/24 01:15:44;;;;;;;0.50;0.50;;;;;;;8.13;80.24;97579.94;29395;240;63004;-54
2024/01/24 01:16:15;;;;;;;0.50;0.50;;;;;;;8.08;80.23;97585.28;29394;263;64003;-54
2024/01/24 01:16:46;;;;;;;0.60;0.60;;;;;;;8.10;80.12;97574.22;29395;205;63004;-60
2024/01/24 01:17:18;;;;;;;0.60;0.60;;;;;;;8.15;79.83;97572.38;29395;216;63008;-59
2024/01/24 01:17:49;;;;;;;0.60;0.60;;;;;;;8.17;79.72;97555.91;29395;210;63005;-61
2024/01/24 01:18:20;;;;;;;0.50;0.50;;;;;;;8.20;79.87;97579.72;29395;259;63009;-58
2024/01/24 01:18:51;;;;;;;0.60;0.60;;;;;;;8.25;79.62;97575.16;29395;215;63005;-57
2024/01/24 01:19:22;;;;;;;0.60;0.60;;;;;;;8.28;79.47;97571.13;29395;226;63009;-54
2024/01/24 01:19:54;;;;;;;0.50;0.50;;;;;;;8.24;79.62;97580.81;29395;252;63005;-55
2024/01/24 01:20:25;;;;;;;0.60;0.60;;;;;;;8.21;79.58;97581.34;29395;236;63009;-55
2024/01/24 01:20:56;;;;;;;0.50;0.50;;;;;;;8.21;79.46;97587.56;29394;228;64009;-54
2024/01/24 01:21:27;;;;;;;0.50;0.50;;;;;;;8.26;79.35;97576.78;29395;218;63009;-55
2024/01/24 01:21:59;;;;;;;0.60;0.60;;;;;;;8.27;79.76;97580.31;29395;209;63005;-54
2024/01/24 01:22:30;;;;;;;0.60;0.60;;;;;;;8.27;79.75;97578.41;29394;231;64013;-54
2024/01/24 01:23:03;;;;;;;0.50;0.50;;;;;;;8.28;79.58;97576.53;29395;325;63011;-55
2024/01/24 01:23:35;;;;;;;0.50;0.50;;;;;;;8.23;79.58;97571.09;29395;224;63009;-54
2024/01/24 01:24:10;;;;;;;0.60;0.60;;;;;;;8.20;79.92;97574.31;29395;216;63004;-61
2024/01/24 01:24:41;;;;;;;0.50;0.50;;;;;;;8.20;80.13;97574.31;29394;224;64013;-61
2024/01/24 01:25:14;;;;;;;0.50;0.50;;;;;;;8.21;79.77;97575.94;29395;207;63004;-55
2024/01/24 01:25:46;;;;;;;0.50;0.50;;;;;;;8.20;79.79;97574.31;29395;233;63009;-54
2024/01/24 01:26:17;;;;;;;0.50;0.50;;;;;;;8.21;79.79;97570.53;29395;216;63005;-54
2024/01/24 01:26:48;;;;;;;0.60;0.60;;;;;;;8.20;79.78;97563.50;29394;230;64014;-63
2024/01/24 01:27:19;;;;;;;0.60;0.60;;;;;;;8.23;79.38;97571.09;29395;197;63005;-57
2024/01/24 01:27:50;;;;;;;0.60;0.60;;;;;;;8.29;78.91;97572.75;29395;276;63009;-54
2024/01/24 01:28:21;;;;;;;0.50;0.50;;;;;;;8.29;79.56;97564.63;29395;224;63005;-53
2024/01/24 01:28:53;;;;;;;0.50;0.50;;;;;;;8.25;79.56;97571.63;29395;197;63015;-55
2024/01/24 01:29:24;;;;;;;0.60;0.60;;;;;;;8.21;79.80;97555.13;29395;210;63005;-60
2024/01/24 01:29:56;;;;;;;0.50;0.50;;;;;;;8.20;79.22;97555.37;29395;421;63009;-53
2024/01/24 01:30:27;;;;;;;0.50;0.50;;;;;;;8.17;79.99;97564.00;29395;229;63004;-53
2024/01/24 01:30:58;;;;;;;0.60;0.60;;;;;;;8.13;80.10;97562.91;29395;196;63009;-53
2024/01/24 01:31:32;;;;;;;0.50;0.50;;;;;;;8.10;80.41;97563.41;29394;260;64009;-54
2024/01/24 01:32:07;;;;;;;0.50;0.50;;;;;;;8.11;80.17;97575.84;29395;222;63008;-54
2024/01/24 01:32:38;;;;;;;0.60;0.60;;;;;;;8.11;80.58;97570.44;29395;235;63004;-53
2024/01/24 01:33:10;;;;;;;0.50;0.50;;;;;;;8.08;80.52;97571.78;29395;243;63009;-57
2024/01/24 01:33:41;;;;;;;0.50;0.50;;;;;;;8.14;80.46;97572.63;29394;202;64009;-63
2024/01/24 01:34:12;;;;;;;0.50;0.50;;;;;;;8.18;80.72;97571.03;29395;223;63009;-56
2024/01/24 01:34:44;;;;;;;0.60;0.60;;;;;;;8.17;80.85;97564.00;29394;256;64009;-56
2024/01/24 01:35:16;;;;;;;0.50;0.50;;;;;;;8.13;80.55;97563.72;29395;206;63018;-55
2024/01/24 01:35:48;;;;;;;0.50;0.50;;;;;;;8.08;81.36;97567.19;29395;234;63005;-56
2024/01/24 01:36:19;;;;;;;0.60;0.60;;;;;;;8.02;81.59;97570.13;29394;213;64013;-56
2024/01/24 01:36:52;;;;;;;0.60;0.60;;;;;;;7.96;81.80;97550.38;29395;248;63005;-56
2024/01/24 01:37:24;;;;;;;0.50;0.50;;;;;;;8.00;81.65;97564.97;29395;252;63009;-54
2024/01/24 01:37:55;;;;;;;0.60;0.60;;;;;;;8.03;81.56;97569.84;29395;228;63004;-57
2024/01/24 01:38:26;;;;;;;0.50;0.50;;;;;;;8.06;81.33;97566.62;29394;259;64013;-56
2024/01/24 01:38:58;;;;;;;0.60;0.60;;;;;;;8.04;81.77;97555.28;29395;205;63004;-56
2024/01/24 01:39:29;;;;;;;0.50;0.50;;;;;;;8.07;81.34;97559.34;29395;223;63009;-57
2024/01/24 01:40:00;;;;;;;0.50;0.50;;;;;;;8.14;80.89;97564.53;29394;198;64008;-55
2024/01/24 01:40:32;;;;;;;0.60;0.60;;;;;;;8.14;80.86;97551.00;29395;198;63009;-54
2024/01/24 01:41:04;;;;;;;0.60;0.60;;;;;;;8.12;81.11;97556.69;29395;210;63014;-54
2024/01/24 01:41:36;;;;;;;0.50;0.50;;;;;;;8.11;80.71;97562.34;29395;212;63009;-56
2024/01/24 01:42:08;;;;;;;0.57;0.57;;;;;;;8.13;81.14;97571.00;29395;220;63005;-57
2024/01/24 01:42:45;;;;;;;0.57;0.57;;;;;;;8.14;80.70;97567.22;29395;212;63005;-54
2024/01/24 01:43:16;;;;;;;0.50;0.50;;;;;;;8.13;80.90;97569.13;29394;212;64009;-55
2024/01/24 01:43:47;;;;;;;0.50;0.50;;;;;;;8.16;80.83;97578.59;29395;203;63009;-55
2024/01/24 01:44:19;;;;;;;0.50;0.50;;;;;;;8.17;81.31;97591.03;29395;199;63005;-57
2024/01/24 01:44:52;;;;;;;0.52;0.52;;;;;;;8.21;81.08;97578.63;29394;218;64013;-54
2024/01/24 01:45:23;;;;;;;0.50;0.50;;;;;;;8.17;81.04;97574.81;29395;216;63004;-55
2024/01/24 01:46:04;;;;;;;0.50;0.50;;;;;;;8.15;80.99;97571.56;29395;208;63009;-62
2024/01/24 01:46:37;;;;;;;0.60;0.60;;;;;;;8.12;81.50;97572.09;29395;213;63004;-53
2024/01/24 01:47:09;;;;;;;0.60;0.60;;;;;;;8.08;81.34;97566.38;29395;279;63009;-53
2024/01/24 01:47:41;;;;;;;0.57;0.57;;;;;;;8.12;81.74;97574.78;29395;222;63004;-56
2024/01/24 01:48:12;;;;;;;0.55;0.55;;;;;;;8.12;81.23;97572.09;29394;209;64009;-54
2024/01/24 01:48:49;;;;;;;0.50;0.50;;;;;;;8.11;81.24;97570.44;29394;218;64009;-65
2024/01/24 01:49:21;;;;;;;0.50;0.50;;;;;;;8.10;81.35;97575.03;29395;210;63009;-55
2024/01/24 01:49:53;;;;;;;0.60;0.60;;;;;;;8.15;81.20;97568.84;29395;211;63005;-54
2024/01/24 01:50:25;;;;;;;0.50;0.50;;;;;;;8.12;80.81;97559.38;29395;214;63009;-53
2024/01/24 01:50:57;;;;;;;0.60;0.60;;;;;;;8.08;81.36;97567.19;29395;252;63005;-54
2024/01/24 01:51:29;;;;;;;0.50;0.50;;;;;;;8.03;81.36;97569.84;29395;204;63009;-53
2024/01/24 01:52:00;;;;;;;0.52;0.52;;;;;;;8.01;81.75;97574.72;29394;248;64009;-53
2024/01/24 01:52:32;;;;;;;0.50;0.50;;;;;;;8.02;82.09;97572.81;29395;279;63015;-56
2024/01/24 01:53:06;;;;;;;0.50;0.50;;;;;;;8.06;81.93;97566.62;29394;247;64009;-53
2024/01/24 01:53:38;;;;;;;0.50;0.50;;;;;;;8.11;81.79;97560.44;29395;253;63009;-54
2024/01/24 01:54:12;;;;;;;0.50;0.50;;;;;;;8.11;81.56;97565.03;29395;245;63004;-54
2024/01/24 01:54:46;;;;;;;0.60;0.60;;;;;;;8.07;81.63;97573.66;29395;237;63008;-54
2024/01/24 01:55:17;;;;;;;0.60;0.60;;;;;;;8.10;81.86;97574.22;29394;201;64008;-61
2024/01/24 01:55:50;;;;;;;0.50;0.50;;;;;;;8.14;81.47;97569.94;29395;254;63009;-54
2024/01/24 01:56:23;;;;;;;0.50;0.50;;;;;;;8.08;81.72;97561.78;29395;197;63005;-53
2024/01/24 01:56:55;;;;;;;0.50;0.50;;;;;;;8.04;81.81;97557.97;29395;380;63009;-55
2024/01/24 01:57:26;;;;;;;0.50;0.50;;;;;;;8.01;81.73;97566.59;29395;249;63005;-54
2024/01/24 01:57:58;;;;;;;1.15;1.15;;;;;;;7.98;82.23;97567.13;29394;226;64013;-53
2024/01/24 01:58:30;;;;;;;0.50;0.50;;;;;;;7.95;82.66;97566.84;29395;259;63005;-54
2024/01/24 01:59:02;;;;;;;0.50;0.50;;;;;;;7.94;82.66;97568.72;29394;242;64005;-54
2024/01/24 01:59:34;;;;;;;0.50;0.50;;;;;;;7.94;82.59;97568.72;29395;273;63004;-54
2024/01/24 02:00:08;;;;;;;0.50;0.50;;;;;;;7.97;82.53;97565.47;29394;206;64013;-53
2024/01/24 02:00:41;;;;;;;0.50;0.50;;;;;;;7.94;82.81;97562.50;29395;267;63004;-53
2024/01/24 02:01:15;;;;;;;0.57;0.57;;;;;;;7.92;82.87;97570.88;29395;258;63023;-54
2024/01/24 02:01:47;;;;;;;0.50;0.50;;;;;;;7.89;82.80;97568.69;29395;259;63004;-53
2024/01/24 02:02:19;;;;;;;0.60;0.60;;;;;;;7.87;83.03;97576.25;29395;247;63009;-53
2024/01/24 02:02:50;;;;;;;0.50;0.50;;;;;;;7.85;83.54;97566.75;29395;198;63005;-54
2024/01/24 02:03:22;;;;;;;0.50;0.50;;;;;;;7.84;83.44;97576.75;29394;246;64014;-53
2024/01/24 02:03:54;;;;;;;0.50;0.50;;;;;;;7.83;83.53;97569.72;29395;213;63005;-54
2024/01/24 02:04:26;;;;;;;0.50;0.50;;;;;;;7.82;83.71;97578.91;29394;222;64013;-54
2024/01/24 02:04:58;;;;;;;0.50;0.50;;;;;;;7.81;83.98;97573.75;29395;225;63005;-53
2024/01/24 02:05:30;;;;;;;0.50;0.50;;;;;;;7.81;83.95;97574.56;29395;222;63009;-54
2024/01/24 02:06:01;;;;;;;0.60;0.60;;;;;;;7.80;83.74;97567.53;29395;224;63005;-53
2024/01/24 02:06:33;;;;;;;0.50;0.50;;;;;;;7.81;84.01;97574.56;29395;221;63009;-63
2024/01/24 02:07:04;;;;;;;0.60;0.60;;;;;;;7.79;83.94;97574.00;29395;207;63004;-54
2024/01/24 02:07:36;;;;;;;0.55;0.55;;;;;;;7.78;83.96;97572.38;29395;238;63009;-54
2024/01/24 02:08:07;;;;;;;0.50;0.50;;;;;;;7.78;84.00;97572.38;29394;235;64009;-53
2024/01/24 02:08:39;;;;;;;0.60;0.60;;;;;;;7.76;84.07;97573.72;29395;226;63009;-53
2024/01/24 02:09:11;;;;;;;0.55;0.55;;;;;;;7.75;84.50;97583.69;29395;235;63004;-62
2024/01/24 02:09:43;;;;;;;0.52;0.52;;;;;;;7.77;84.16;97578.03;29396;201;63008;-54
2024/01/24 02:10:15;;;;;;;0.50;0.50;;;;;;;7.78;84.36;97582.38;29395;378;63005;-53
2024/01/24 02:10:46;;;;;;;0.50;0.50;;;;;;;7.75;84.32;97583.69;29395;270;63009;-53
2024/01/24 02:11:18;;;;;;;0.60;0.60;;;;;;;7.76;84.23;97584.50;29394;214;64009;-54
2024/01/24 02:11:49;;;;;;;0.50;0.50;;;;;;;7.75;83.93;97581.00;29395;253;63009;-53
2024/01/24 02:12:24;;;;;;;0.50;0.50;;;;;;;7.79;83.90;97584.81;29394;203;64009;-54
2024/01/24 02:12:55;;;;;;;0.50;0.50;;;;;;;7.80;84.03;97578.34;29394;256;64002;-53
2024/01/24 02:13:31;;;;;;;0.50;0.50;;;;;;;7.79;83.85;97568.59;29395;196;63012;-54
2024/01/24 02:14:03;;;;;;;0.52;0.52;;;;;;;7.77;84.07;97581.56;29395;255;63009;-53
2024/01/24 02:14:34;;;;;;;0.50;0.50;;;;;;;7.80;84.21;97581.03;29395;221;63004;-54
2024/01/24 02:15:08;;;;;;;0.50;0.50;;;;;;;7.81;84.15;97588.06;29394;213;64013;-53
2024/01/24 02:15:39;;;;;;;0.50;0.50;;;;;;;7.81;84.55;97593.47;29395;215;63004;-53
2024/01/24 02:16:13;;;;;;;0.50;0.50;;;;;;;7.85;83.69;97582.97;29395;209;63009;-53
2024/01/24 02:16:48;;;;;;;0.60;0.60;;;;;;;7.91;83.87;97571.13;29395;197;63004;-54
2024/01/24 02:17:19;;;;;;;0.52;0.52;;;;;;;7.92;83.41;97572.75;29395;198;63008;-53
2024/01/24 02:17:50;;;;;;;0.60;0.60;;;;;;;7.90;83.22;97575.72;29394;279;64009;-54
2024/01/24 02:18:22;;;;;;;0.50;0.50;;;;;;;7.88;83.56;97577.87;29395;238;63009;-53
2024/01/24 02:18:53;;;;;;;0.50;0.50;;;;;;;7.88;83.73;97569.75;29394;237;64009;-54
2024/01/24 02:19:25;;;;;;;0.50;0.50;;;;;;;7.90;83.61;97572.22;29395;216;63009;-54
2024/01/24 02:19:57;;;;;;;0.50;0.50;;;;;;;7.93;83.60;97564.41;29395;257;63005;-54
2024/01/24 02:20:31;;;;;;;0.50;0.50;;;;;;;7.92;83.46;97568.19;29395;202;63009;-54
2024/01/24 02:21:04;;;;;;;0.60;0.60;;;;;;;7.96;83.39;97574.69;29395;205;63005;-53
2024/01/24 02:21:35;;;;;;;0.50;0.50;;;;;;;8.00;83.18;97564.16;29395;199;63017;-54
2024/01/24 02:22:06;;;;;;;0.50;0.50;;;;;;;8.00;83.21;97564.97;29395;210;63010;-55
2024/01/24 02:22:38;;;;;;;0.50;0.50;;;;;;;8.07;82.88;97565.56;29395;210;63004;-56
2024/01/24 02:23:12;;;;;;;0.50;0.50;;;;;;;8.14;82.89;97569.94;29395;237;63004;-57
2024/01/24 02:23:44;;;;;;;0.50;0.50;;;;;;;8.17;82.49;97556.72;29394;240;64013;-53
2024/01/24 02:24:16;;;;;;;0.50;0.50;;;;;;;8.16;82.30;97554.28;29395;213;63004;-54
2024/01/24 02:24:48;;;;;;;0.60;0.60;;;;;;;8.12;82.48;97550.47;29395;229;63008;-54
2024/01/24 02:25:19;;;;;;;0.60;0.60;;;;;;;8.12;82.82;97558.56;29395;197;63005;-53
2024/01/24 02:25:52;;;;;;;0.50;0.50;;;;;;;8.11;82.50;97560.44;29395;273;63009;-54
2024/01/24 02:26:23;;;;;;;0.50;0.50;;;;;;;8.10;82.68;97555.31;29395;214;63005;-54
2024/01/24 02:26:54;;;;;;;0.50;0.50;;;;;;;8.11;82.43;97555.03;29395;225;63009;-55
2024/01/24 02:27:25;;;;;;;0.50;0.50;;;;;;;8.13;82.50;97552.09;29395;270;63005;-54
2024/01/24 02:27:57;;;;;;;0.50;0.50;;;;;;;8.10;82.62;97558.00;29394;197;64013;-54
2024/01/24 02:28:29;;;;;;;0.50;0.50;;;;;;;8.07;82.98;97560.16;29395;256;63005;-55
2024/01/24 02:29:00;;;;;;;0.50;0.50;;;;;;;8.03;82.56;97552.81;29395;231;63009;-54
2024/01/24 02:29:31;;;;;;;0.50;0.50;;;;;;;8.01;83.00;97554.97;29395;205;63004;-55
2024/01/24 02:30:04;;;;;;;0.50;0.50;;;;;;;8.03;83.08;97544.72;29395;206;63009;-57
2024/01/24 02:30:36;;;;;;;0.50;0.50;;;;;;;8.10;82.61;97552.59;29394;238;64009;-56
2024/01/24 02:31:07;;;;;;;0.50;0.50;;;;;;;8.17;82.61;97564.00;29395;226;63009;-54
2024/01/24 02:31:38;;;;;;;0.50;0.50;;;;;;;8.18;82.27;97560.22;29394;229;64008;-55
2024/01/24 02:32:10;;;;;;;0.50;0.50;;;;;;;8.17;82.27;97559.41;29395;203;63008;-59
2024/01/24 02:32:41;;;;;;;0.60;0.60;;;;;;;8.20;82.26;97558.09;29395;270;63005;-65
2024/01/24 02:33:13;;;;;;;0.50;0.50;;;;;;;8.22;82.34;97553.22;29395;230;63009;-56
2024/01/24 02:33:44;;;;;;;0.50;0.50;;;;;;;8.20;82.03;97558.91;29395;244;63005;-55
2024/01/24 02:34:15;;;;;;;0.57;0.57;;;;;;;8.20;81.95;97563.50;29395;206;63009;-56
2024/01/24 02:34:47;;;;;;;0.50;0.50;;;;;;;8.20;82.64;97560.78;29395;261;63005;-55